Time;durP1;ratioP1;P1;durP2;ratioP2;P2;SDS_P1;SDS_P2;PMS_P1;PMS_P2;Temp;Humidity;BMP_temperature;BMP_pressure;BME280_temperature;BME280_humidity;BME280_pressure;Samples;Min_cycle;Max_cycle;Signal;HPM_P1;HPM_P2
2022/12/01 00:01:56;;;;;;;82.43;41.15;;;6.60;99.90;;;;;;5074465;28;20162;-66
2022/12/01 00:04:21;;;;;;;91.20;40.28;;;6.70;99.90;;;;;;5074134;28;20036;-66
2022/12/01 00:06:47;;;;;;;82.60;39.17;;;6.50;99.90;;;;;;5074289;28;20506;-66
2022/12/01 00:11:57;;;;;;;87.38;38.55;;;6.50;99.90;;;;;;5074401;28;20051;-66
2022/12/01 00:14:22;;;;;;;80.70;37.22;;;6.50;99.90;;;;;;5074269;28;20040;-66
2022/12/01 00:16:48;;;;;;;79.43;39.10;;;6.60;99.90;;;;;;5072772;28;20037;-66
2022/12/01 00:19:13;;;;;;;81.40;37.95;;;6.70;99.90;;;;;;5072947;28;20490;-66
2022/12/01 00:21:39;;;;;;;83.28;39.45;;;6.60;99.90;;;;;;5074179;28;20044;-66
2022/12/01 00:24:06;;;;;;;82.88;39.17;;;6.50;99.90;;;;;;5073872;28;20040;-66
2022/12/01 00:26:31;;;;;;;85.00;39.63;;;6.50;99.90;;;;;;5074118;28;20055;-66
2022/12/01 00:28:58;;;;;;;86.03;40.50;;;6.50;99.90;;;;;;5074043;28;20036;-66
2022/12/01 00:31:25;;;;;;;82.47;39.85;;;6.60;99.90;;;;;;5072597;28;20043;-66
2022/12/01 00:33:51;;;;;;;81.95;38.05;;;6.50;99.90;;;;;;5072335;28;20115;-66
2022/12/01 00:36:17;;;;;;;87.30;41.88;;;6.50;99.90;;;;;;5072466;28;20123;-66
2022/12/01 00:38:42;;;;;;;85.15;39.45;;;6.50;99.90;;;;;;5073890;28;20037;-66
2022/12/01 00:41:08;;;;;;;84.93;40.50;;;6.60;99.90;;;;;;5073878;28;20040;-66
2022/12/01 00:43:34;;;;;;;89.93;41.70;;;6.60;99.90;;;;;;5073426;28;20656;-66
2022/12/01 00:45:59;;;;;;;91.75;40.97;;;6.50;99.90;;;;;;5073521;28;20123;-66
2022/12/01 00:48:25;;;;;;;90.10;41.40;;;6.40;99.90;;;;;;5073818;28;20039;-66
2022/12/01 00:50:51;;;;;;;90.55;42.63;;;6.50;99.90;;;;;;5072551;28;20082;-66
2022/12/01 00:53:17;;;;;;;91.88;41.97;;;6.50;99.90;;;;;;5071859;28;20525;-66
2022/12/01 00:55:42;;;;;;;89.70;41.78;;;6.30;99.90;;;;;;5073427;28;20040;-66
2022/12/01 00:58:08;;;;;;;91.28;41.53;;;6.30;99.90;;;;;;5073439;28;20486;-68
2022/12/01 01:00:37;;;;;;;89.78;42.67;;;6.60;99.90;;;;;;5073327;28;20039;-67
2022/12/01 01:03:03;;;;;;;92.25;42.53;;;6.30;99.90;;;;;;5071979;28;20036;-67
2022/12/01 01:05:29;;;;;;;96.55;41.40;;;6.70;99.90;;;;;;5073208;28;20041;-67
2022/12/01 01:07:54;;;;;;;102.45;44.90;;;6.60;99.90;;;;;;5073119;28;20120;-68
2022/12/01 01:10:21;;;;;;;89.60;44.20;;;6.60;99.90;;;;;;5072125;28;20036;-67
2022/12/01 01:12:47;;;;;;;99.75;43.78;;;6.50;99.90;;;;;;5072925;28;20414;-67
2022/12/01 01:15:12;;;;;;;91.13;41.28;;;6.50;99.90;;;;;;5071650;28;20051;-67
2022/12/01 01:17:38;;;;;;;92.00;42.40;;;6.50;99.90;;;;;;5071798;28;20444;-67
2022/12/01 01:20:05;;;;;;;87.70;41.38;;;6.40;99.90;;;;;;5073553;28;20095;-68
2022/12/01 01:22:31;;;;;;;87.78;42.78;;;6.50;99.90;;;;;;5072974;28;20115;-67
2022/12/01 01:24:56;;;;;;;88.13;41.72;;;6.50;99.90;;;;;;5071608;28;20127;-67
2022/12/01 01:27:22;;;;;;;87.63;44.10;;;6.30;99.90;;;;;;5072897;28;20049;-67
2022/12/01 01:29:47;;;;;;;88.75;43.30;;;6.50;99.90;;;;;;5072761;28;20387;-67
2022/12/01 01:32:13;;;;;;;86.18;42.22;;;6.50;99.90;;;;;;5071884;28;20037;-67
2022/12/01 01:34:38;;;;;;;92.95;42.03;;;6.40;99.90;;;;;;5072669;28;20430;-67
2022/12/01 01:37:04;;;;;;;92.75;44.08;;;6.50;99.90;;;;;;5071234;28;20513;-67
2022/12/01 01:39:29;;;;;;;94.35;42.38;;;6.50;99.90;;;;;;5071307;28;20040;-67
2022/12/01 01:41:55;;;;;;;90.78;43.17;;;6.50;99.90;;;;;;5072543;28;20076;-67
2022/12/01 01:44:51;;;;;;;88.43;42.10;;;6.30;99.90;;;;;;5072125;28;20032;-68
2022/12/01 01:47:25;;;;;;;88.38;39.38;;;6.50;99.90;;;;;;5072507;28;20112;-67
2022/12/01 01:49:52;;;;;;;90.80;43.53;;;6.50;99.90;;;;;;5071132;28;20383;-67
2022/12/01 01:52:17;;;;;;;92.43;41.88;;;6.40;99.90;;;;;;5072234;28;20526;-67
2022/12/01 01:54:46;;;;;;;92.05;43.13;;;6.50;99.90;;;;;;5072035;28;20041;-67
2022/12/01 01:57:15;;;;;;;95.95;42.58;;;6.60;99.90;;;;;;5072395;28;20140;-67
2022/12/01 01:59:48;;;;;;;89.38;42.22;;;6.70;99.90;;;;;;5054344;28;20041;-67
2022/12/01 02:02:14;;;;;;;91.32;42.85;;;6.40;99.90;;;;;;5072100;28;20040;-67
2022/12/01 02:04:44;;;;;;;86.00;38.72;;;6.70;99.90;;;;;;5072024;28;20520;-67
2022/12/01 02:07:13;;;;;;;110.00;46.10;;;6.50;99.90;;;;;;5071878;28;20032;-67
2022/12/01 02:09:39;;;;;;;90.70;44.08;;;6.40;99.90;;;;;;5070767;28;20094;-67
2022/12/01 02:12:24;;;;;;;97.70;45.08;;;6.40;99.90;;;;;;5054095;28;20436;-67
2022/12/01 02:15:11;;;;;;;88.00;43.40;;;6.50;99.90;;;;;;5070769;28;20131;-67
2022/12/01 02:17:51;;;;;;;99.97;44.63;;;6.60;99.90;;;;;;5071919;28;20486;-67
2022/12/01 02:20:45;;;;;;;106.05;45.75;;;6.50;99.90;;;;;;5070426;28;20082;-67
2022/12/01 02:23:48;;;;;;;102.72;43.70;;;6.40;99.90;;;;;;5063622;28;20190;-67
2022/12/01 02:26:46;;;;;;;95.57;44.58;;;6.60;99.90;;;;;;5071817;28;20115;-68
2022/12/01 02:29:27;;;;;;;99.10;45.30;;;6.40;99.90;;;;;;5072001;28;20040;-67
2022/12/01 02:32:27;;;;;;;104.60;48.15;;;6.60;99.90;;;;;;5053871;28;20084;-67
2022/12/01 02:35:02;;;;;;;103.80;45.97;;;6.50;99.90;;;;;;5071814;28;20056;-67
2022/12/01 02:37:56;;;;;;;100.13;44.83;;;6.40;99.90;;;;;;5070754;28;20071;-67
2022/12/01 02:41:09;;;;;;;104.82;46.08;;;6.40;99.90;;;;;;5070700;28;20051;-67
2022/12/01 02:43:58;;;;;;;100.53;45.30;;;6.50;99.90;;;;;;5029019;28;20414;-67
2022/12/01 02:46:32;;;;;;;109.45;46.10;;;6.40;99.90;;;;;;5012851;28;20060;-67
2022/12/01 02:49:03;;;;;;;98.72;44.40;;;6.40;99.90;;;;;;5054620;28;20125;-67
2022/12/01 02:51:34;;;;;;;99.70;45.70;;;6.40;99.90;;;;;;5070402;28;20051;-67
2022/12/01 02:54:02;;;;;;;107.40;46.97;;;6.40;99.90;;;;;;5071333;28;20083;-67
2022/12/01 02:56:28;;;;;;;96.40;43.20;;;6.40;99.90;;;;;;5071622;28;20055;-67
2022/12/01 02:58:54;;;;;;;92.72;43.33;;;6.60;99.90;;;;;;5070503;28;20044;-67
2022/12/01 03:01:45;;;;;;;98.03;42.88;;;6.50;99.90;;;;;;5070148;28;20071;-67
2022/12/01 03:04:44;;;;;;;100.13;42.85;;;6.60;99.90;;;;;;5071202;28;20044;-67
2022/12/01 03:07:31;;;;;;;105.47;45.67;;;6.60;99.90;;;;;;5093475;22;20075;-69
2022/12/01 03:10:26;;;;;;;95.43;44.35;;;6.60;99.90;;;;;;5071490;28;20044;-68
2022/12/01 03:13:29;;;;;;;103.57;43.92;;;6.40;99.90;;;;;;5071033;28;20045;-68
2022/12/01 03:16:17;;;;;;;89.55;41.88;;;6.60;99.90;;;;;;5070759;28;20040;-68
2022/12/01 03:18:58;;;;;;;102.22;46.15;;;6.50;99.90;;;;;;5071235;28;20424;-69
2022/12/01 03:21:31;;;;;;;102.75;45.17;;;6.60;99.90;;;;;;5071300;28;20045;-68
2022/12/01 03:24:00;;;;;;;;;;;6.70;99.90;;;;;;5071346;28;20060;-68
2022/12/01 03:26:29;;;;;;;105.32;47.00;;;6.70;99.90;;;;;;5070820;28;19917;-68
2022/12/01 03:29:01;;;;;;;115.03;47.38;;;6.40;99.90;;;;;;5071207;28;20075;-68
2022/12/01 03:31:31;;;;;;;113.40;51.08;;;6.60;99.90;;;;;;5072339;28;20165;-68
2022/12/01 03:34:02;;;;;;;102.10;46.10;;;6.40;99.90;;;;;;5074410;28;20044;-68
2022/12/01 03:36:35;;;;;;;104.75;47.72;;;6.60;99.90;;;;;;5073274;28;20048;-68
2022/12/01 03:39:05;;;;;;;106.97;45.97;;;6.50;99.90;;;;;;5074597;28;20555;-68
2022/12/01 03:41:36;;;;;;;108.82;48.53;;;6.50;99.90;;;;;;5074774;28;20043;-68
2022/12/01 03:44:11;;;;;;;104.85;48.53;;;6.40;99.90;;;;;;5074242;28;20056;-68
2022/12/01 03:46:49;;;;;;;111.82;46.80;;;6.60;99.90;;;;;;5074565;28;20068;-69
2022/12/01 03:49:17;;;;;;;106.18;45.92;;;6.40;99.90;;;;;;5074240;28;20044;-68
2022/12/01 03:51:55;;;;;;;109.60;45.70;;;6.50;99.90;;;;;;5074640;28;20215;-68
2022/12/01 03:54:49;;;;;;;95.53;43.67;;;6.30;99.90;;;;;;5072779;28;20058;-68
2022/12/01 03:57:22;;;;;;;101.53;47.97;;;6.50;99.90;;;;;;5074183;28;20040;-68
2022/12/01 03:59:48;;;;;;;107.88;46.13;;;6.40;99.90;;;;;;5074191;28;20405;-68
2022/12/01 04:02:15;;;;;;;116.30;47.28;;;6.40;99.90;;;;;;5074232;28;20044;-68
2022/12/01 04:04:40;;;;;;;99.55;45.65;;;6.50;99.90;;;;;;5072821;28;20105;-68
2022/12/01 04:07:06;;;;;;;110.20;49.67;;;6.60;99.90;;;;;;5073953;28;20632;-68
2022/12/01 04:09:32;;;;;;;111.03;49.70;;;6.60;99.90;;;;;;5074129;28;20083;-68
2022/12/01 04:14:52;;;;;;;113.05;46.88;;;6.60;99.90;;;;;;5049917;28;20066;-68
2022/12/01 04:17:18;;;;;;;112.72;49.08;;;6.50;99.90;;;;;;5073795;28;20136;-68
2022/12/01 04:19:43;;;;;;;108.90;49.95;;;6.50;99.90;;;;;;5072871;28;20047;-68
2022/12/01 04:22:09;;;;;;;107.10;47.55;;;6.60;99.90;;;;;;5069919;28;20048;-67
2022/12/01 04:24:34;;;;;;;103.07;47.35;;;6.50;99.90;;;;;;5073387;28;20033;-67
2022/12/01 04:27:00;;;;;;;111.57;46.05;;;6.70;99.90;;;;;;5073937;28;20036;-68
2022/12/01 04:29:25;;;;;;;107.28;47.15;;;6.50;99.90;;;;;;5073958;28;20616;-68
2022/12/01 04:31:51;;;;;;;100.20;45.83;;;6.50;99.90;;;;;;5073699;28;20085;-67
2022/12/01 04:34:16;;;;;;;97.50;43.22;;;6.50;99.90;;;;;;5072205;28;20131;-68
2022/12/01 04:36:42;;;;;;;109.07;47.00;;;6.50;99.90;;;;;;5073456;28;20048;-67
2022/12/01 04:39:07;;;;;;;101.32;44.03;;;6.70;99.90;;;;;;5073523;28;20402;-67
2022/12/01 04:41:33;;;;;;;104.80;43.30;;;6.70;99.90;;;;;;5073448;28;20611;-67
2022/12/01 04:43:58;;;;;;;99.00;44.38;;;6.50;99.90;;;;;;5072851;28;20060;-67
2022/12/01 04:46:24;;;;;;;105.88;45.78;;;6.50;99.90;;;;;;5073585;28;20072;-67
2022/12/01 04:48:50;;;;;;;95.80;45.15;;;6.70;99.90;;;;;;5073594;28;20410;-67
2022/12/01 04:51:16;;;;;;;102.65;44.55;;;6.70;99.90;;;;;;5073470;28;20041;-67
2022/12/01 04:53:42;;;;;;;104.85;43.15;;;6.60;99.90;;;;;;5073029;28;20040;-67
2022/12/01 04:56:07;;;;;;;102.90;45.38;;;6.70;99.90;;;;;;5073298;28;20049;-67
2022/12/01 04:58:36;;;;;;;108.57;48.97;;;6.70;99.90;;;;;;5073166;28;20036;-67
2022/12/01 05:01:07;;;;;;;109.65;45.45;;;6.60;99.90;;;;;;5073162;28;20036;-67
2022/12/01 05:03:40;;;;;;;92.25;42.70;;;6.60;99.90;;;;;;5072657;28;20547;-67
2022/12/01 05:06:09;;;;;;;108.07;47.17;;;6.80;99.90;;;;;;5072882;28;20036;-68
2022/12/01 05:08:34;;;;;;;98.63;45.08;;;6.50;99.90;;;;;;5072752;28;20036;-68
2022/12/01 05:11:00;;;;;;;90.53;41.95;;;6.60;99.90;;;;;;5072988;28;20480;-68
2022/12/01 05:13:26;;;;;;;101.07;42.90;;;6.60;99.90;;;;;;5072640;28;20695;-67
2022/12/01 05:15:52;;;;;;;102.90;45.15;;;6.50;99.90;;;;;;5072627;28;20390;-67
2022/12/01 05:18:17;;;;;;;102.60;46.55;;;6.50;99.90;;;;;;5072704;28;20047;-68
2022/12/01 05:20:58;;;;;;;96.43;43.33;;;6.70;99.90;;;;;;5072659;28;20041;-67
2022/12/01 05:23:25;;;;;;;103.85;45.63;;;6.70;99.90;;;;;;5072576;28;20032;-67
2022/12/01 05:25:51;;;;;;;96.72;43.60;;;6.50;99.90;;;;;;5072635;28;20186;-67
2022/12/01 05:28:16;;;;;;;109.78;46.65;;;6.70;99.90;;;;;;5072402;28;20486;-67
2022/12/01 05:30:42;;;;;;;113.90;47.85;;;6.60;99.90;;;;;;5072189;28;20483;-67
2022/12/01 05:33:08;;;;;;;106.30;47.15;;;6.70;99.90;;;;;;5072072;28;20041;-67
2022/12/01 05:35:33;;;;;;;111.00;46.92;;;6.50;99.90;;;;;;5071907;28;20494;-67
2022/12/01 05:37:59;;;;;;;101.22;46.05;;;6.60;99.90;;;;;;5070883;28;20042;-67
2022/12/01 05:40:24;;;;;;;111.55;46.58;;;6.50;99.90;;;;;;5072365;28;20125;-68
2022/12/01 05:42:50;;;;;;;97.97;41.45;;;6.50;99.90;;;;;;5071898;28;20683;-67
2022/12/01 05:45:16;;;;;;;97.00;44.42;;;6.50;99.90;;;;;;5072058;28;20040;-67
2022/12/01 05:47:41;;;;;;;100.78;43.40;;;6.70;99.90;;;;;;5071995;28;20040;-67
2022/12/01 05:50:07;;;;;;;96.95;42.60;;;6.40;99.90;;;;;;5072029;28;20477;-67
2022/12/01 05:52:34;;;;;;;97.07;44.15;;;6.50;99.90;;;;;;5070510;28;20040;-67
2022/12/01 05:55:00;;;;;;;98.50;43.45;;;6.60;99.90;;;;;;5071282;28;20052;-68
2022/12/01 05:57:26;;;;;;;98.93;43.83;;;6.70;99.90;;;;;;5071930;28;20041;-66
2022/12/01 05:59:51;;;;;;;97.95;44.28;;;6.50;99.90;;;;;;5071902;28;20490;-67
2022/12/01 06:02:17;;;;;;;95.55;43.60;;;6.50;99.90;;;;;;5071766;28;20036;-67
2022/12/01 06:04:43;;;;;;;99.60;42.83;;;6.50;99.90;;;;;;5071838;28;20032;-67
2022/12/01 06:07:09;;;;;;;89.13;40.88;;;6.60;99.90;;;;;;5071887;28;20045;-67
2022/12/01 06:09:34;;;;;;;89.47;40.63;;;6.60;99.90;;;;;;5072091;28;20043;-67
2022/12/01 06:12:00;;;;;;;89.85;41.72;;;6.50;99.90;;;;;;5071963;28;20043;-67
2022/12/01 06:14:25;;;;;;;85.47;42.53;;;6.40;99.90;;;;;;5071300;28;20036;-68
2022/12/01 06:16:51;;;;;;;92.53;42.05;;;6.60;99.90;;;;;;5071542;28;20032;-67
2022/12/01 06:19:16;;;;;;;87.63;40.35;;;6.50;99.90;;;;;;5071484;28;20040;-67
2022/12/01 06:21:42;;;;;;;89.32;40.55;;;6.70;99.90;;;;;;5071684;28;20044;-68
2022/12/01 06:24:08;;;;;;;87.05;38.83;;;6.70;99.90;;;;;;5071579;28;20041;-68
2022/12/01 06:26:34;;;;;;;89.57;40.03;;;6.80;99.90;;;;;;5071597;28;20048;-68
2022/12/01 06:28:59;;;;;;;94.13;41.47;;;6.60;99.90;;;;;;5071642;28;20115;-68
2022/12/01 06:31:25;;;;;;;87.65;39.42;;;6.60;99.90;;;;;;5070291;28;20044;-67
2022/12/01 06:33:50;;;;;;;87.88;39.80;;;6.80;99.90;;;;;;5071179;28;20094;-68
2022/12/01 06:36:16;;;;;;;90.07;39.92;;;6.80;99.90;;;;;;5071526;28;20105;-68
2022/12/01 06:38:41;;;;;;;83.22;40.97;;;6.70;99.90;;;;;;5071456;28;20106;-67
2022/12/01 06:41:07;;;;;;;89.47;40.63;;;6.80;99.90;;;;;;5071616;28;20040;-68
2022/12/01 06:43:36;;;;;;;89.50;39.95;;;6.80;99.90;;;;;;5070908;28;20477;-68
2022/12/01 06:46:03;;;;;;;85.18;38.63;;;6.60;99.90;;;;;;5071244;28;20048;-67
2022/12/01 06:48:30;;;;;;;91.72;40.08;;;6.80;99.90;;;;;;5071468;28;20044;-68
2022/12/01 06:50:57;;;;;;;92.25;40.40;;;6.80;99.90;;;;;;5071479;28;20052;-67
2022/12/01 06:53:23;;;;;;;90.43;39.83;;;6.80;99.90;;;;;;5071238;28;20040;-68
2022/12/01 06:55:48;;;;;;;89.47;39.13;;;6.60;99.90;;;;;;5070085;28;20059;-68
2022/12/01 06:58:15;;;;;;;89.53;42.13;;;6.60;99.90;;;;;;5071393;28;20037;-69
2022/12/01 07:00:40;;;;;;;87.22;40.45;;;6.80;99.90;;;;;;5071384;28;20044;-68
2022/12/01 07:03:07;;;;;;;91.18;41.78;;;6.60;99.90;;;;;;5071004;28;20052;-68
2022/12/01 07:05:32;;;;;;;85.10;41.90;;;6.70;99.90;;;;;;5071317;28;20044;-68
2022/12/01 07:07:59;;;;;;;90.20;41.25;;;6.60;99.90;;;;;;5075352;28;20056;-68
2022/12/01 07:10:24;;;;;;;81.13;39.65;;;6.80;99.90;;;;;;5075468;28;20040;-68
2022/12/01 07:12:50;;;;;;;84.50;38.45;;;6.80;99.90;;;;;;5075166;28;20047;-68
2022/12/01 07:15:15;;;;;;;84.03;37.60;;;6.90;99.90;;;;;;5075258;28;20044;-68
2022/12/01 07:17:41;;;;;;;85.10;39.95;;;6.80;99.90;;;;;;5075166;28;20028;-68
2022/12/01 07:20:09;;;;;;;87.32;39.97;;;6.70;99.90;;;;;;5075461;28;20064;-68
2022/12/01 07:22:35;;;;;;;90.15;40.25;;;6.60;99.90;;;;;;5075082;28;20051;-68
2022/12/01 07:25:00;;;;;;;81.30;38.22;;;6.60;99.90;;;;;;5075299;28;20041;-68
2022/12/01 07:27:30;;;;;;;86.13;38.35;;;6.60;99.90;;;;;;5075200;28;20036;-68
2022/12/01 07:29:56;;;;;;;77.38;38.47;;;6.60;99.90;;;;;;5075079;28;20048;-67
2022/12/01 07:32:22;;;;;;;81.22;40.85;;;6.80;99.90;;;;;;5074991;28;20390;-68
2022/12/01 07:34:47;;;;;;;80.20;40.70;;;6.70;99.90;;;;;;5075241;28;20477;-67
2022/12/01 07:37:13;;;;;;;91.68;40.38;;;6.80;99.90;;;;;;5074881;28;20037;-68
2022/12/01 07:39:38;;;;;;;77.72;36.75;;;6.60;99.90;;;;;;5075108;28;20094;-68
2022/12/01 07:42:04;;;;;;;72.65;34.63;;;6.70;99.90;;;;;;5075325;28;20154;-68
2022/12/01 07:44:29;;;;;;;72.30;35.22;;;6.70;99.90;;;;;;5075051;28;20045;-68
2022/12/01 07:46:55;;;;;;;76.57;37.00;;;6.40;99.90;;;;;;5075622;28;20123;-67
2022/12/01 07:49:21;;;;;;;72.68;36.55;;;6.50;99.90;;;;;;5075529;28;20044;-68
2022/12/01 07:51:46;;;;;;;77.63;37.60;;;6.40;99.90;;;;;;5074832;28;20423;-67
2022/12/01 07:54:13;;;;;;;76.97;35.88;;;6.60;99.90;;;;;;5072859;28;20081;-66
2022/12/01 07:56:39;;;;;;;80.85;38.05;;;6.40;99.90;;;;;;5074225;28;20040;-66
2022/12/01 07:59:05;;;;;;;82.03;37.47;;;6.50;99.90;;;;;;5074315;28;20093;-66
2022/12/01 08:01:30;;;;;;;74.65;34.28;;;6.20;99.90;;;;;;5074176;28;20086;-66
2022/12/01 08:03:57;;;;;;;79.68;36.88;;;6.20;99.90;;;;;;5074343;28;20032;-66
2022/12/01 08:06:25;;;;;;;80.38;37.35;;;6.40;99.90;;;;;;5074295;28;20131;-66
2022/12/01 08:08:51;;;;;;;75.10;35.22;;;6.20;99.90;;;;;;5074459;28;20043;-66
2022/12/01 08:11:22;;;;;;;77.13;37.38;;;6.40;99.90;;;;;;5074478;28;20051;-66
2022/12/01 08:13:49;;;;;;;82.90;36.35;;;6.50;99.90;;;;;;5073782;28;20541;-67
2022/12/01 08:16:18;;;;;;;82.70;37.72;;;6.40;99.90;;;;;;5074238;28;20494;-65
2022/12/01 08:18:43;;;;;;;82.80;39.72;;;6.40;99.90;;;;;;5072669;28;20037;-66
2022/12/01 08:21:12;;;;;;;81.70;39.10;;;6.50;99.90;;;;;;5073889;28;20036;-66
2022/12/01 08:23:38;;;;;;;82.00;38.75;;;6.50;99.90;;;;;;5073762;28;20040;-67
2022/12/01 08:26:06;;;;;;;86.20;39.33;;;6.40;99.90;;;;;;5073867;28;20119;-66
2022/12/01 08:28:34;;;;;;;83.55;39.45;;;6.30;99.90;;;;;;5072757;28;20762;-66
2022/12/01 08:31:10;;;;;;;82.88;40.78;;;6.50;99.90;;;;;;5073846;28;20506;-66
2022/12/01 08:33:35;;;;;;;82.63;40.65;;;6.60;99.90;;;;;;5073473;28;20048;-66
2022/12/01 08:36:02;;;;;;;81.05;38.88;;;6.40;99.90;;;;;;5073362;28;20486;-66
2022/12/01 08:38:28;;;;;;;85.60;39.70;;;6.40;99.90;;;;;;5073595;28;20449;-67
2022/12/01 08:40:55;;;;;;;79.70;38.67;;;6.70;99.90;;;;;;5073320;28;20037;-66
2022/12/01 08:43:21;;;;;;;79.88;40.15;;;6.50;99.90;;;;;;5073394;28;20055;-66
2022/12/01 08:45:47;;;;;;;80.82;38.55;;;6.70;99.90;;;;;;5073389;28;20041;-67
2022/12/01 08:48:13;;;;;;;83.57;40.63;;;6.70;99.90;;;;;;5073436;28;20116;-67
2022/12/01 08:50:38;;;;;;;83.85;39.97;;;6.60;99.90;;;;;;5073260;28;20190;-66
2022/12/01 08:53:04;;;;;;;80.57;39.35;;;6.40;99.90;;;;;;5072914;28;20040;-66
2022/12/01 08:55:29;;;;;;;85.35;39.25;;;6.60;99.90;;;;;;5072880;28;20041;-66
2022/12/01 08:57:55;;;;;;;82.45;37.25;;;6.40;99.90;;;;;;5073357;28;20059;-66
2022/12/01 09:00:20;;;;;;;79.70;35.92;;;6.60;99.90;;;;;;5071994;28;20494;-66
2022/12/01 09:02:46;;;;;;;73.85;36.72;;;6.50;99.90;;;;;;5072867;28;20043;-66
2022/12/01 09:05:11;;;;;;;83.75;39.47;;;6.40;99.90;;;;;;5071962;28;20040;-69
2022/12/01 09:07:37;;;;;;;84.50;39.33;;;6.50;99.90;;;;;;5096615;22;20055;-69
2022/12/01 09:10:03;;;;;;;82.30;38.28;;;6.40;99.90;;;;;;5073220;28;20127;-70
2022/12/01 09:12:29;;;;;;;72.57;35.30;;;6.30;99.90;;;;;;5055364;28;20445;-69
2022/12/01 09:14:54;;;;;;;71.90;35.58;;;6.20;99.90;;;;;;5055200;28;20047;-67
2022/12/01 09:17:20;;;;;;;74.88;36.78;;;6.30;99.90;;;;;;5054751;28;20406;-67
2022/12/01 09:19:45;;;;;;;74.88;35.63;;;6.40;99.90;;;;;;5055031;28;20068;-67
2022/12/01 09:22:11;;;;;;;76.78;33.55;;;6.40;99.90;;;;;;5054923;28;20317;-67
2022/12/01 09:24:37;;;;;;;71.05;36.15;;;6.40;99.90;;;;;;5072519;28;20123;-67
2022/12/01 09:27:03;;;;;;;75.05;35.67;;;6.40;99.90;;;;;;5054772;28;20032;-67
2022/12/01 09:29:30;;;;;;;75.85;36.38;;;6.20;99.90;;;;;;5055280;28;20106;-67
2022/12/01 09:31:56;;;;;;;85.88;37.17;;;6.10;99.90;;;;;;5055370;28;20410;-67
2022/12/01 09:34:23;;;;;;;74.07;35.65;;;6.20;99.90;;;;;;5054520;28;20040;-67
2022/12/01 09:36:48;;;;;;;69.78;33.90;;;6.30;99.90;;;;;;5054786;28;20044;-67
2022/12/01 09:39:16;;;;;;;75.22;35.58;;;6.40;99.90;;;;;;5072672;28;20158;-69
2022/12/01 09:41:45;;;;;;;77.93;36.53;;;6.20;99.90;;;;;;5054908;28;20125;-67
2022/12/01 09:44:19;;;;;;;74.82;36.63;;;6.40;99.90;;;;;;5054403;28;20047;-67
2022/12/01 09:47:04;;;;;;;83.07;37.70;;;6.30;99.90;;;;;;5054684;28;20040;-67
2022/12/01 09:49:44;;;;;;;79.38;38.35;;;6.40;99.90;;;;;;5054750;28;20444;-67
2022/12/01 09:52:12;;;;;;;77.00;37.20;;;6.40;99.90;;;;;;5054830;28;20525;-68
2022/12/01 09:54:38;;;;;;;86.95;38.95;;;6.60;99.90;;;;;;5072308;28;20051;-68
2022/12/01 09:57:04;;;;;;;74.65;35.53;;;6.50;99.90;;;;;;5072169;28;20041;-68
2022/12/01 09:59:39;;;;;;;77.13;36.25;;;6.50;99.90;;;;;;5072449;28;20040;-67
2022/12/01 10:02:22;;;;;;;79.28;34.90;;;6.80;99.90;;;;;;5054247;28;20494;-68
2022/12/01 10:04:50;;;;;;;76.47;35.90;;;6.60;99.90;;;;;;5054634;28;20044;-68
2022/12/01 10:07:42;;;;;;;84.53;38.05;;;6.70;99.90;;;;;;5054053;28;20051;-68
2022/12/01 10:10:15;;;;;;;82.10;37.90;;;6.90;99.90;;;;;;5070296;28;20433;-68
2022/12/01 10:12:43;;;;;;;79.65;37.05;;;6.70;99.90;;;;;;5051506;28;20056;-68
2022/12/01 10:15:41;;;;;;;72.28;36.45;;;6.90;99.90;;;;;;5072141;28;20044;-67
2022/12/01 10:18:29;;;;;;;76.13;36.13;;;6.90;99.90;;;;;;5035274;28;20504;-67
2022/12/01 10:21:37;;;;;;;73.10;33.15;;;6.90;99.90;;;;;;5050640;28;20074;-67
2022/12/01 10:24:21;;;;;;;69.43;32.72;;;6.90;99.90;;;;;;5070439;28;20529;-68
2022/12/01 10:27:30;;;;;;;66.00;32.35;;;6.70;99.90;;;;;;5071344;28;20044;-68
2022/12/01 10:30:07;;;;;;;69.22;32.67;;;6.90;99.90;;;;;;5053854;28;20036;-68
2022/12/01 10:32:51;;;;;;;66.63;32.17;;;6.80;99.90;;;;;;5053647;28;20402;-68
2022/12/01 10:35:21;;;;;;;59.78;28.83;;;6.80;99.90;;;;;;5071637;28;20452;-71
2022/12/01 10:38:21;;;;;;;70.30;33.45;;;6.70;99.90;;;;;;5037186;28;20033;-70
2022/12/01 10:40:52;;;;;;;60.35;30.73;;;6.80;99.90;;;;;;5048888;28;20039;-69
2022/12/01 10:43:20;;;;;;;67.78;32.33;;;6.80;99.90;;;;;;5070327;28;20055;-69
2022/12/01 10:45:46;;;;;;;67.47;30.35;;;6.60;99.90;;;;;;5071125;28;20046;-68
2022/12/01 10:48:16;;;;;;;72.35;34.38;;;6.60;99.90;;;;;;5071258;28;20041;-69
2022/12/01 10:50:44;;;;;;;65.15;31.85;;;6.80;99.90;;;;;;5053057;28;20150;-69
2022/12/01 10:53:29;;;;;;;70.93;33.50;;;6.80;99.90;;;;;;5053445;28;20048;-69
2022/12/01 10:56:00;;;;;;;70.57;32.08;;;6.80;99.90;;;;;;5053449;28;20036;-69
2022/12/01 10:58:26;;;;;;;70.03;34.38;;;6.90;99.90;;;;;;5053823;28;20059;-69
2022/12/01 11:01:02;;;;;;;67.65;31.38;;;7.00;99.90;;;;;;5053207;28;20475;-69
2022/12/01 11:03:34;;;;;;;64.95;31.15;;;7.00;99.90;;;;;;5053046;28;20045;-69
2022/12/01 11:06:03;;;;;;;70.80;31.95;;;6.90;99.90;;;;;;5054661;28;20594;-70
2022/12/01 11:08:45;;;;;;;61.85;30.55;;;6.80;99.90;;;;;;5036820;28;20052;-69
2022/12/01 11:11:30;;;;;;;61.05;29.33;;;7.00;99.90;;;;;;5053461;28;20036;-70
2022/12/01 11:13:58;;;;;;;58.78;30.92;;;6.90;99.90;;;;;;5053157;28;20049;-69
2022/12/01 11:16:55;;;;;;;63.55;29.35;;;7.00;99.90;;;;;;5071362;28;20040;-69
2022/12/01 11:19:39;;;;;;;61.70;29.35;;;6.90;99.90;;;;;;5032289;28;20131;-71
2022/12/01 11:22:44;;;;;;;65.13;31.60;;;6.90;99.90;;;;;;5053581;28;20036;-69
2022/12/01 11:25:20;;;;;;;64.38;30.90;;;6.70;99.90;;;;;;4957842;28;20639;-69
2022/12/01 11:27:53;;;;;;;60.10;29.48;;;6.70;99.90;;;;;;4972685;28;20059;-69
2022/12/01 11:30:29;;;;;;;59.20;29.55;;;6.80;99.90;;;;;;5017274;28;20565;-69
2022/12/01 11:33:00;;;;;;;58.45;29.75;;;6.90;99.90;;;;;;5052973;28;20082;-69
2022/12/01 11:35:33;;;;;;;62.53;30.35;;;6.80;99.90;;;;;;5053184;28;20375;-68
2022/12/01 11:38:01;;;;;;;57.50;29.10;;;6.90;99.90;;;;;;5052836;28;20037;-69
2022/12/01 11:40:36;;;;;;;61.92;28.92;;;6.80;99.90;;;;;;5053187;28;20044;-69
2022/12/01 11:43:04;;;;;;;58.25;29.50;;;6.80;99.90;;;;;;5053134;28;20037;-69
2022/12/01 11:45:35;;;;;;;52.53;26.08;;;6.60;99.90;;;;;;5053094;28;20109;-69
2022/12/01 11:48:24;;;;;;;47.00;25.92;;;6.70;99.90;;;;;;5053197;28;20119;-69
2022/12/01 11:51:06;;;;;;;45.22;24.70;;;6.70;99.90;;;;;;5053029;28;20514;-68
2022/12/01 11:53:40;;;;;;;49.47;25.98;;;6.50;99.90;;;;;;5071937;28;20158;-69
2022/12/01 11:56:27;;;;;;;50.63;27.58;;;6.60;99.90;;;;;;5056545;28;20037;-68
2022/12/01 11:59:05;;;;;;;52.35;27.08;;;6.40;99.90;;;;;;5056745;28;20543;-69
2022/12/01 12:02:04;;;;;;;62.28;31.52;;;6.50;99.90;;;;;;5074245;28;20044;-69
2022/12/01 12:05:04;;;;;;;52.40;27.38;;;6.60;99.90;;;;;;5056221;28;20056;-68
2022/12/01 12:07:57;;;;;;;52.60;27.30;;;6.60;99.90;;;;;;5056183;28;20123;-69
2022/12/01 12:10:56;;;;;;;50.05;27.15;;;6.60;99.90;;;;;;5056440;28;20046;-69
2022/12/01 12:13:39;;;;;;;49.65;26.10;;;6.60;99.90;;;;;;5073993;28;20413;-69
2022/12/01 12:16:33;;;;;;;47.05;25.13;;;6.70;99.90;;;;;;5056348;28;20515;-69
2022/12/01 12:19:29;;;;;;;48.08;24.65;;;6.70;99.90;;;;;;5056527;28;20086;-69
2022/12/01 12:22:01;;;;;;;52.00;24.38;;;6.70;99.90;;;;;;5056426;28;20045;-69
2022/12/01 12:24:34;;;;;;;49.92;26.88;;;6.70;99.90;;;;;;5055840;28;20037;-68
2022/12/01 12:27:38;;;;;;;51.22;26.95;;;6.80;99.90;;;;;;5055971;28;20047;-69
2022/12/01 12:30:17;;;;;;;51.50;25.42;;;6.70;99.90;;;;;;5056308;28;20108;-69
2022/12/01 12:32:54;;;;;;;54.58;28.45;;;6.80;99.90;;;;;;5055654;28;20037;-69
2022/12/01 12:35:49;;;;;;;57.28;27.95;;;6.80;99.90;;;;;;5039417;28;20045;-69
2022/12/01 12:38:32;;;;;;;50.65;26.77;;;6.80;99.90;;;;;;5055835;28;20086;-69
2022/12/01 12:41:17;;;;;;;;;;;6.90;99.90;;;;;;5056185;28;20043;-69
2022/12/01 12:44:08;;;;;;;53.50;26.58;;;6.70;99.90;;;;;;5055490;28;19916;-68
2022/12/01 12:47:01;;;;;;;50.85;27.23;;;6.70;99.90;;;;;;5055587;28;20044;-69
2022/12/01 12:49:38;;;;;;;51.25;26.65;;;6.80;99.90;;;;;;5055696;28;20041;-69
2022/12/01 12:52:15;;;;;;;55.45;27.35;;;6.70;99.90;;;;;;5055788;28;20445;-68
2022/12/01 12:55:08;;;;;;;55.30;29.92;;;6.70;99.90;;;;;;5055667;28;20048;-69
2022/12/01 12:58:03;;;;;;;53.78;27.90;;;6.70;99.90;;;;;;5054152;28;20512;-68
2022/12/01 13:00:29;;;;;;;56.92;29.48;;;6.80;99.90;;;;;;5035431;28;20466;-69
2022/12/01 13:03:16;;;;;;;56.13;27.70;;;6.70;99.90;;;;;;5055189;28;20087;-69
2022/12/01 13:05:55;;;;;;;56.63;29.20;;;6.80;99.90;;;;;;5055020;28;20043;-69